Аэропорт: Сыктывкар. Сыктывкар

ICAO: UUYY

METAR:
2020-06-02 07:30:00
UUYY 020730Z 03003MPS 340V070 9999 BKN044 10/01 Q1023 R36/61D NOSIG RMK QFE758/1011
METAR:
2020-06-02 05:00:00
TAF UUYY 020500Z 0206/0306 01003G08MPS 9999 BKN020CB TEMPO 0206/0306 6000 -SHRA BKN016CB BECMG 0221/0222 32003MPS